Time;durP1;ratioP1;P1;durP2;ratioP2;P2;SDS_P1;SDS_P2;PMS_P1;PMS_P2;Temp;Humidity;BMP_temperature;BMP_pressure;BME280_temperature;BME280_humidity;BME280_pressure;Samples;Min_cycle;Max_cycle;Signal;HPM_P1;HPM_P2
2024/02/06 00:00:07;;;;;;;7.53;1.60;;;7.00;99.90;;;;;;5040263;28;20370;-66
2024/02/06 00:02:33;;;;;;;8.32;2.10;;;7.00;99.90;;;;;;5035934;28;20025;-65
2024/02/06 00:04:59;;;;;;;4.95;1.70;;;7.00;99.90;;;;;;5037053;28;20033;-66
2024/02/06 00:07:31;;;;;;;2.90;1.92;;;7.00;99.90;;;;;;5039319;28;20084;-66
2024/02/06 00:09:56;;;;;;;5.30;2.35;;;7.00;99.90;;;;;;5031677;28;20018;-65
2024/02/06 00:12:22;;;;;;;5.82;1.65;;;7.00;99.90;;;;;;5052544;28;20230;-65
2024/02/06 00:14:48;;;;;;;6.65;1.42;;;7.00;99.90;;;;;;5039764;28;20051;-65
2024/02/06 00:17:13;;;;;;;3.60;2.13;;;6.90;99.90;;;;;;5033925;28;20500;-65
2024/02/06 00:19:39;;;;;;;5.53;1.75;;;7.00;99.90;;;;;;5037166;28;20048;-65
2024/02/06 00:22:05;;;;;;;4.93;2.55;;;6.90;99.90;;;;;;5035791;28;20025;-65
2024/02/06 00:24:31;;;;;;;6.07;2.90;;;6.90;99.90;;;;;;5054070;28;20500;-65
2024/02/06 00:26:57;;;;;;;11.50;3.10;;;6.90;99.90;;;;;;5037503;28;20036;-65
2024/02/06 00:29:24;;;;;;;4.45;1.88;;;6.90;99.90;;;;;;5044151;28;20029;-65
2024/02/06 00:31:50;;;;;;;8.20;3.63;;;6.90;99.90;;;;;;5042396;28;20479;-65
2024/02/06 00:34:18;;;;;;;6.13;1.92;;;6.90;99.90;;;;;;5040501;28;20021;-65
2024/02/06 00:36:44;;;;;;;11.90;2.40;;;6.90;99.90;;;;;;5038743;28;20103;-65
2024/02/06 00:39:10;;;;;;;10.82;2.42;;;6.90;99.90;;;;;;5045516;28;20025;-65
2024/02/06 00:41:37;;;;;;;5.55;1.95;;;6.90;99.90;;;;;;5042375;28;20029;-65
2024/02/06 00:44:03;;;;;;;5.85;1.90;;;6.90;99.90;;;;;;5056288;28;20112;-65
2024/02/06 00:46:29;;;;;;;6.82;2.45;;;6.90;99.90;;;;;;5038926;28;20472;-66
2024/02/06 00:48:55;;;;;;;9.50;2.90;;;6.90;99.90;;;;;;5037379;28;20041;-65
2024/02/06 00:51:20;;;;;;;3.92;2.55;;;7.00;99.90;;;;;;5039329;28;20100;-65
2024/02/06 00:53:46;;;;;;;10.45;3.70;;;7.20;99.90;;;;;;5039249;28;20363;-65
2024/02/06 00:56:12;;;;;;;8.27;2.83;;;7.30;99.90;;;;;;5039140;28;20032;-66
2024/02/06 00:58:40;;;;;;;8.23;1.98;;;7.20;99.90;;;;;;5041877;28;20402;-65
2024/02/06 01:01:06;;;;;;;12.63;2.25;;;7.30;99.90;;;;;;5041910;28;20110;-65
2024/02/06 01:03:32;;;;;;;3.65;2.17;;;7.20;99.90;;;;;;5037547;28;20053;-65
2024/02/06 01:05:57;;;;;;;5.28;2.60;;;7.20;99.90;;;;;;5040196;28;20065;-64
2024/02/06 01:08:23;;;;;;;6.60;4.07;;;7.20;99.90;;;;;;5039212;28;20034;-65
2024/02/06 01:10:49;;;;;;;12.93;3.55;;;7.30;99.90;;;;;;5035879;28;20028;-65
2024/02/06 01:13:15;;;;;;;4.85;2.17;;;7.40;99.90;;;;;;5038372;28;20108;-65
2024/02/06 01:15:40;;;;;;;6.90;2.75;;;7.40;99.90;;;;;;5040980;28;20375;-65
2024/02/06 01:18:06;;;;;;;6.18;3.58;;;7.40;99.90;;;;;;5038976;28;20490;-65
2024/02/06 01:20:32;;;;;;;13.13;4.07;;;7.40;99.90;;;;;;5056853;28;20458;-65
2024/02/06 01:22:58;;;;;;;8.38;3.10;;;7.40;99.90;;;;;;5037382;28;20456;-65
2024/02/06 01:25:24;;;;;;;15.68;3.83;;;7.40;99.90;;;;;;5045784;28;20666;-65
2024/02/06 01:27:50;;;;;;;9.65;3.38;;;7.40;99.90;;;;;;5039005;28;20029;-65
2024/02/06 01:30:16;;;;;;;7.68;2.50;;;7.40;99.90;;;;;;5040266;28;20033;-65
2024/02/06 01:32:41;;;;;;;9.98;3.67;;;7.40;99.90;;;;;;5040132;28;20079;-65
2024/02/06 01:35:09;;;;;;;7.85;2.92;;;7.40;99.90;;;;;;5036423;28;20432;-65
2024/02/06 01:37:35;;;;;;;15.68;2.75;;;7.40;99.90;;;;;;5039762;28;20068;-65
2024/02/06 01:40:01;;;;;;;6.25;2.97;;;7.40;99.90;;;;;;5038432;28;20057;-65
2024/02/06 01:42:27;;;;;;;15.20;3.47;;;7.40;99.90;;;;;;5038510;28;20032;-65
2024/02/06 01:44:53;;;;;;;8.43;2.58;;;7.40;99.90;;;;;;5040888;28;20135;-66
2024/02/06 01:47:20;;;;;;;13.35;3.28;;;7.30;99.90;;;;;;5037959;28;20255;-65
2024/02/06 01:49:46;;;;;;;7.80;3.53;;;7.30;99.90;;;;;;5038138;28;20036;-65
2024/02/06 01:52:13;;;;;;;3.85;2.28;;;7.30;99.90;;;;;;5035894;28;20029;-65
2024/02/06 01:54:39;;;;;;;10.25;3.25;;;7.30;99.90;;;;;;5036229;28;20017;-65
2024/02/06 01:57:05;;;;;;;8.30;2.80;;;7.30;99.90;;;;;;5035690;28;20503;-65
2024/02/06 01:59:31;;;;;;;4.40;2.53;;;7.30;99.90;;;;;;5058337;28;20109;-66
2024/02/06 02:01:57;;;;;;;10.70;4.82;;;7.30;99.90;;;;;;5035720;28;20123;-66
2024/02/06 02:04:23;;;;;;;10.23;2.50;;;7.30;99.90;;;;;;5034964;28;20038;-66
2024/02/06 02:06:49;;;;;;;5.28;2.78;;;7.30;99.90;;;;;;5026499;28;20087;-66
2024/02/06 02:09:15;;;;;;;6.95;2.53;;;7.30;99.90;;;;;;5037401;28;20021;-65
2024/02/06 02:11:41;;;;;;;12.82;3.85;;;7.20;99.90;;;;;;5036720;28;20029;-65
2024/02/06 02:14:07;;;;;;;6.72;2.58;;;7.30;99.90;;;;;;5036785;28;20021;-66
2024/02/06 02:16:33;;;;;;;11.32;3.33;;;7.30;99.90;;;;;;5036210;28;20031;-66
2024/02/06 02:18:58;;;;;;;16.10;4.05;;;7.30;99.90;;;;;;5041188;28;20025;-65
2024/02/06 02:21:26;;;;;;;17.33;3.67;;;7.30;99.90;;;;;;5040272;28;20392;-66
2024/02/06 02:23:53;;;;;;;14.30;4.72;;;7.30;99.90;;;;;;5041861;28;20091;-66
2024/02/06 02:26:20;;;;;;;14.65;4.50;;;7.20;99.90;;;;;;5040353;28;20305;-66
2024/02/06 02:28:46;;;;;;;7.50;3.55;;;7.30;99.90;;;;;;5042630;28;20038;-66
2024/02/06 02:31:12;;;;;;;15.52;2.95;;;7.30;99.90;;;;;;5023461;28;20022;-66
2024/02/06 02:33:38;;;;;;;11.02;4.10;;;7.30;99.90;;;;;;5057549;28;20049;-66
2024/02/06 02:36:08;;;;;;;11.07;3.90;;;7.30;99.90;;;;;;5044090;28;20086;-66
2024/02/06 02:38:36;;;;;;;11.70;2.67;;;7.30;99.90;;;;;;5040704;28;20060;-65
2024/02/06 02:41:03;;;;;;;8.02;2.88;;;7.20;99.90;;;;;;5023173;28;20064;-66
2024/02/06 02:43:28;;;;;;;7.93;4.30;;;7.20;99.90;;;;;;5038062;28;20021;-66
2024/02/06 02:45:54;;;;;;;9.45;3.28;;;7.20;99.90;;;;;;5035724;28;20060;-65
2024/02/06 02:48:20;;;;;;;14.02;4.55;;;7.20;99.90;;;;;;5043801;28;20029;-66
2024/02/06 02:50:46;;;;;;;10.07;3.42;;;7.20;99.90;;;;;;5026706;28;20044;-65
2024/02/06 02:53:14;;;;;;;4.40;2.38;;;7.20;99.90;;;;;;5042508;28;20021;-66
2024/02/06 02:55:40;;;;;;;6.72;3.03;;;7.20;99.90;;;;;;5055481;28;20049;-66
2024/02/06 02:58:06;;;;;;;7.93;2.50;;;7.20;99.90;;;;;;5041578;28;20060;-66
2024/02/06 03:00:34;;;;;;;10.35;2.35;;;7.30;99.90;;;;;;5041823;28;20138;-65
2024/02/06 03:03:00;;;;;;;6.78;3.70;;;7.20;99.90;;;;;;5034205;28;20040;-65
2024/02/06 03:05:26;;;;;;;9.55;2.58;;;7.30;99.90;;;;;;5037754;28;20029;-66
2024/02/06 03:07:52;;;;;;;6.20;2.53;;;7.20;99.90;;;;;;5040540;28;20025;-65
2024/02/06 03:10:17;;;;;;;12.32;4.35;;;7.20;99.90;;;;;;5042196;28;20078;-66
2024/02/06 03:12:43;;;;;;;11.13;2.65;;;7.20;99.90;;;;;;5038630;28;20053;-65
2024/02/06 03:15:09;;;;;;;8.55;3.45;;;7.20;99.90;;;;;;5040333;28;20084;-66
2024/02/06 03:17:35;;;;;;;8.88;2.95;;;7.10;99.90;;;;;;5055301;28;20170;-65
2024/02/06 03:20:04;;;;;;;7.60;3.28;;;7.10;99.90;;;;;;5042466;28;20030;-66
2024/02/06 03:22:34;;;;;;;6.97;2.88;;;7.10;99.90;;;;;;5041838;28;20033;-66
2024/02/06 03:25:00;;;;;;;10.80;2.75;;;7.10;99.90;;;;;;5042543;28;20028;-65
2024/02/06 03:27:26;;;;;;;14.07;3.10;;;7.10;99.90;;;;;;5038471;28;20033;-67
2024/02/06 03:29:54;;;;;;;9.43;3.17;;;7.10;99.90;;;;;;5042495;28;20037;-66
2024/02/06 03:32:20;;;;;;;10.00;3.58;;;7.10;99.90;;;;;;5029293;28;20408;-66
2024/02/06 03:34:46;;;;;;;21.75;4.05;;;7.10;99.90;;;;;;5041195;28;20033;-66
2024/02/06 03:37:13;;;;;;;5.25;2.40;;;7.10;99.90;;;;;;5036867;28;20037;-66
2024/02/06 03:39:39;;;;;;;4.30;2.75;;;7.00;99.90;;;;;;5036921;28;20029;-66
2024/02/06 03:42:05;;;;;;;10.15;3.22;;;7.10;99.90;;;;;;5042409;28;20040;-66
2024/02/06 03:44:30;;;;;;;9.30;3.58;;;7.00;99.90;;;;;;5042242;28;20381;-66
2024/02/06 03:46:56;;;;;;;5.28;1.83;;;7.00;99.90;;;;;;5036352;28;20044;-67
2024/02/06 03:49:22;;;;;;;6.47;3.38;;;7.00;99.90;;;;;;5043479;28;20025;-66
2024/02/06 03:51:47;;;;;;;19.40;3.55;;;7.00;99.90;;;;;;5041416;28;20025;-66
2024/02/06 03:54:13;;;;;;;5.38;2.50;;;6.90;99.90;;;;;;5045106;28;20481;-65
2024/02/06 03:56:39;;;;;;;6.38;2.80;;;7.00;99.90;;;;;;5041101;28;20033;-66
2024/02/06 03:59:04;;;;;;;13.02;3.70;;;7.00;99.90;;;;;;5041686;28;20056;-66
2024/02/06 04:01:30;;;;;;;3.42;2.40;;;6.90;99.90;;;;;;5041374;28;20655;-67
2024/02/06 04:03:56;;;;;;;12.85;3.45;;;6.90;99.90;;;;;;5041472;28;20039;-65
2024/02/06 04:06:22;;;;;;;11.45;2.35;;;7.00;99.90;;;;;;5043787;28;20032;-65
2024/02/06 04:08:48;;;;;;;12.27;3.42;;;6.90;99.90;;;;;;5042228;28;20033;-65
2024/02/06 04:11:14;;;;;;;1.73;1.02;;;6.90;99.90;;;;;;5044603;28;21892;-65
2024/02/06 04:13:40;;;;;;;9.70;2.58;;;6.90;99.90;;;;;;5059137;28;20021;-65
2024/02/06 04:16:06;;;;;;;8.88;2.78;;;6.90;99.90;;;;;;5040527;28;20057;-65
2024/02/06 04:18:33;;;;;;;4.63;2.08;;;6.90;99.90;;;;;;5056801;28;20024;-65
2024/02/06 04:21:02;;;;;;;5.72;2.97;;;6.90;99.90;;;;;;5044970;28;20448;-65
2024/02/06 04:23:27;;;;;;;3.10;1.75;;;6.90;99.90;;;;;;5043591;28;20036;-65
2024/02/06 04:25:53;;;;;;;13.25;3.38;;;6.90;99.90;;;;;;5044750;28;20034;-65
2024/02/06 04:28:20;;;;;;;7.18;2.45;;;6.90;99.90;;;;;;5047127;28;20381;-66
2024/02/06 04:30:46;;;;;;;11.55;3.10;;;6.90;99.90;;;;;;5047837;28;20420;-67
2024/02/06 04:33:12;;;;;;;6.82;2.67;;;7.00;99.90;;;;;;5045513;28;20029;-65
2024/02/06 04:35:38;;;;;;;3.67;2.28;;;6.90;99.90;;;;;;5044558;28;20044;-66
2024/02/06 04:38:05;;;;;;;6.75;2.80;;;6.90;99.90;;;;;;5041048;28;20033;-66
2024/02/06 04:40:31;;;;;;;5.47;2.40;;;6.90;99.90;;;;;;5045377;28;20036;-65
2024/02/06 04:42:57;;;;;;;12.43;3.42;;;6.80;99.90;;;;;;5040865;28;20038;-66
2024/02/06 04:45:22;;;;;;;5.90;3.38;;;6.90;99.90;;;;;;5044840;28;20118;-65
2024/02/06 04:47:48;;;;;;;5.70;2.30;;;6.90;99.90;;;;;;5043185;28;20398;-65
2024/02/06 04:50:18;;;;;;;15.32;3.75;;;6.90;99.90;;;;;;5044714;28;20469;-66
2024/02/06 04:52:45;;;;;;;9.55;2.58;;;6.90;99.90;;;;;;5039666;28;20022;-65
2024/02/06 04:55:11;;;;;;;9.93;3.10;;;6.90;99.90;;;;;;5045113;28;20032;-66
2024/02/06 04:57:38;;;;;;;16.50;3.95;;;6.90;99.90;;;;;;5043101;28;20068;-65
2024/02/06 05:00:11;;;;;;;12.48;3.05;;;6.90;99.90;;;;;;5028090;28;20033;-65
2024/02/06 05:02:36;;;;;;;15.55;4.05;;;6.90;99.90;;;;;;5042013;28;20036;-65
2024/02/06 05:05:02;;;;;;;6.75;2.72;;;6.80;99.90;;;;;;5042305;28;20029;-65
2024/02/06 05:07:28;;;;;;;4.68;2.88;;;6.80;99.90;;;;;;5043330;28;20051;-66
2024/02/06 05:09:54;;;;;;;8.48;3.28;;;6.90;99.90;;;;;;5045916;28;20044;-66
2024/02/06 05:12:20;;;;;;;8.45;3.13;;;6.80;99.90;;;;;;5043004;28;20024;-65
2024/02/06 05:14:46;;;;;;;6.80;2.60;;;6.70;99.90;;;;;;5042675;28;20051;-65
2024/02/06 05:17:11;;;;;;;8.38;2.95;;;6.80;99.90;;;;;;5040973;28;20091;-65
2024/02/06 05:19:41;;;;;;;23.38;2.45;;;6.80;99.90;;;;;;5044023;28;20021;-65
2024/02/06 05:22:10;;;;;;;12.13;3.50;;;6.70;99.90;;;;;;5040081;28;20105;-67
2024/02/06 05:24:37;;;;;;;8.93;4.22;;;6.60;99.90;;;;;;5042837;28;20033;-66
2024/02/06 05:27:03;;;;;;;8.35;3.25;;;6.70;99.90;;;;;;5041674;28;20359;-66
2024/02/06 05:29:30;;;;;;;11.27;3.83;;;6.60;99.90;;;;;;5045317;28;20551;-65
2024/02/06 05:31:57;;;;;;;8.43;3.90;;;6.60;99.90;;;;;;5040067;28;20025;-66
2024/02/06 05:34:23;;;;;;;10.73;3.47;;;6.60;99.90;;;;;;5045546;28;20128;-66
2024/02/06 05:36:49;;;;;;;7.90;2.97;;;6.60;99.90;;;;;;5041622;28;20484;-66
2024/02/06 05:39:15;;;;;;;15.82;2.55;;;6.50;99.90;;;;;;5042692;28;20056;-66
2024/02/06 05:41:41;;;;;;;8.90;3.58;;;6.50;99.90;;;;;;5041808;28;20087;-66
2024/02/06 05:44:07;;;;;;;20.02;2.70;;;6.50;99.90;;;;;;5043924;28;20025;-66
2024/02/06 05:46:33;;;;;;;13.63;3.35;;;6.50;99.90;;;;;;5043519;28;20044;-66
2024/02/06 05:48:59;;;;;;;16.85;3.63;;;6.50;99.90;;;;;;5041131;28;20056;-66
2024/02/06 05:51:25;;;;;;;10.32;4.50;;;6.50;99.90;;;;;;5040133;28;20052;-67
2024/02/06 05:53:51;;;;;;;7.78;3.88;;;6.50;99.90;;;;;;5040756;28;20029;-66
2024/02/06 05:56:17;;;;;;;4.07;2.28;;;6.50;99.90;;;;;;5037832;28;20033;-66
2024/02/06 05:58:43;;;;;;;7.90;3.20;;;6.50;99.90;;;;;;5040345;28;20025;-66
2024/02/06 06:01:11;;;;;;;5.15;2.85;;;6.50;99.90;;;;;;5040583;28;20035;-66
2024/02/06 06:03:37;;;;;;;4.93;2.63;;;6.50;99.90;;;;;;5040944;28;20112;-66
2024/02/06 06:06:03;;;;;;;9.82;3.58;;;6.50;99.90;;;;;;5041759;28;20108;-66
2024/02/06 06:08:29;;;;;;;8.95;2.95;;;6.50;99.90;;;;;;5039291;28;20128;-66
2024/02/06 06:10:56;;;;;;;12.73;3.92;;;6.50;99.90;;;;;;5043183;28;20038;-66
2024/02/06 06:13:24;;;;;;;7.55;3.30;;;6.50;99.90;;;;;;5039238;28;20033;-66
2024/02/06 06:15:51;;;;;;;6.45;3.40;;;6.50;99.90;;;;;;5038658;28;20377;-66
2024/02/06 06:18:17;;;;;;;5.60;2.47;;;6.50;99.90;;;;;;5034711;28;20030;-67
2024/02/06 06:20:42;;;;;;;8.88;3.13;;;6.50;99.90;;;;;;5040794;28;20390;-69
2024/02/06 06:23:08;;;;;;;6.72;3.25;;;6.50;99.90;;;;;;5031036;28;20033;-66
2024/02/06 06:25:34;;;;;;;6.75;3.65;;;6.40;99.90;;;;;;5029424;28;20072;-66
2024/02/06 06:28:00;;;;;;;12.18;3.47;;;6.40;99.90;;;;;;5030597;28;20176;-66
2024/02/06 06:30:26;;;;;;;5.80;3.42;;;6.40;99.90;;;;;;5031957;28;20032;-67
2024/02/06 06:32:51;;;;;;;7.50;3.20;;;6.40;99.90;;;;;;5030398;28;20025;-65
2024/02/06 06:35:17;;;;;;;5.47;2.75;;;6.40;99.90;;;;;;5030919;28;20026;-65
2024/02/06 06:37:43;;;;;;;3.53;2.20;;;6.50;99.90;;;;;;5030355;28;20068;-65
2024/02/06 06:40:09;;;;;;;8.63;3.97;;;6.40;99.90;;;;;;5031092;28;20115;-66
2024/02/06 06:42:35;;;;;;;5.05;2.05;;;6.40;99.90;;;;;;5030618;28;20167;-65
2024/02/06 06:45:01;;;;;;;11.68;3.70;;;6.40;99.90;;;;;;5031118;28;20112;-65
2024/02/06 06:47:31;;;;;;;5.00;2.25;;;6.40;99.90;;;;;;5030483;28;20063;-65
2024/02/06 06:49:57;;;;;;;4.38;3.70;;;6.30;99.90;;;;;;5031239;28;20036;-65
2024/02/06 06:52:23;;;;;;;3.25;2.03;;;6.30;99.90;;;;;;5030962;28;20029;-66
2024/02/06 06:54:49;;;;;;;17.38;3.10;;;6.30;99.90;;;;;;5028904;28;20434;-65
2024/02/06 06:57:15;;;;;;;5.38;2.13;;;6.30;99.90;;;;;;5026098;28;20022;-64
2024/02/06 06:59:40;;;;;;;6.63;3.00;;;6.30;99.90;;;;;;5033014;28;20099;-65
2024/02/06 07:02:06;;;;;;;6.95;3.85;;;6.40;99.90;;;;;;5035861;28;20064;-64
2024/02/06 07:04:32;;;;;;;8.27;2.50;;;6.40;99.90;;;;;;5030477;28;20116;-64
2024/02/06 07:06:58;;;;;;;4.65;2.13;;;6.30;99.90;;;;;;5045388;28;20030;-64
2024/02/06 07:09:27;;;;;;;8.15;2.83;;;6.40;99.90;;;;;;5034507;28;20029;-64
2024/02/06 07:11:53;;;;;;;5.68;2.55;;;6.40;99.90;;;;;;5027947;28;20095;-64
2024/02/06 07:14:19;;;;;;;10.40;1.88;;;6.30;99.90;;;;;;5045159;28;20025;-56
2024/02/06 07:16:45;;;;;;;13.82;3.20;;;6.40;99.90;;;;;;5032309;28;20025;-51
2024/02/06 07:19:11;;;;;;;5.47;2.35;;;6.40;99.90;;;;;;5031043;28;20056;-52
2024/02/06 07:21:37;;;;;;;4.63;1.58;;;6.30;99.90;;;;;;5045989;28;20485;-54
2024/02/06 07:24:04;;;;;;;9.13;2.15;;;6.30;99.90;;;;;;5030629;28;20021;-51
2024/02/06 07:26:31;;;;;;;6.03;2.63;;;6.30;99.90;;;;;;5030604;28;20166;-52
2024/02/06 07:28:57;;;;;;;10.27;2.45;;;6.30;99.90;;;;;;5030152;28;20029;-53
2024/02/06 07:31:23;;;;;;;4.40;1.90;;;6.40;99.90;;;;;;5046316;28;20084;-59
2024/02/06 07:33:50;;;;;;;4.05;2.30;;;6.40;99.90;;;;;;5031021;28;20038;-66
2024/02/06 07:36:16;;;;;;;3.97;1.55;;;6.50;99.90;;;;;;5034329;28;20017;-66
2024/02/06 07:38:42;;;;;;;6.97;3.50;;;6.40;99.90;;;;;;5046398;28;20031;-64
2024/02/06 07:41:08;;;;;;;3.45;1.45;;;6.50;99.90;;;;;;5050257;28;20030;-65
2024/02/06 07:43:37;;;;;;;6.05;1.65;;;6.50;99.90;;;;;;5033061;28;20037;-65
2024/02/06 07:46:04;;;;;;;8.55;2.83;;;6.50;99.90;;;;;;5035955;28;20033;-67
2024/02/06 07:48:31;;;;;;;5.07;2.13;;;6.50;99.90;;;;;;5049222;28;20049;-66
2024/02/06 07:50:56;;;;;;;5.78;2.30;;;6.60;99.90;;;;;;5024818;28;20030;-66
2024/02/06 07:53:22;;;;;;;6.82;2.95;;;6.60;99.90;;;;;;5032982;28;20661;-65
2024/02/06 07:55:48;;;;;;;6.45;3.22;;;6.70;99.90;;;;;;5034178;28;20490;-65
2024/02/06 07:58:14;;;;;;;5.05;2.67;;;6.70;99.90;;;;;;5033545;28;20033;-66
2024/02/06 08:00:39;;;;;;;7.57;2.38;;;6.60;99.90;;;;;;5034758;28;20029;-66
2024/02/06 08:03:05;;;;;;;3.15;2.20;;;6.60;99.90;;;;;;5033559;28;20037;-66
2024/02/06 08:05:31;;;;;;;8.63;2.40;;;6.60;99.90;;;;;;5031655;28;20482;-66
2024/02/06 08:07:57;;;;;;;5.13;3.13;;;6.70;99.90;;;;;;5033459;28;20037;-66
2024/02/06 08:10:23;;;;;;;3.45;1.42;;;6.60;99.90;;;;;;5034342;28;20068;-66
2024/02/06 08:12:49;;;;;;;3.47;1.70;;;6.60;99.90;;;;;;5031939;28;20698;-66
2024/02/06 08:15:15;;;;;;;2.72;2.08;;;6.60;99.90;;;;;;5049356;28;20698;-66
2024/02/06 08:17:42;;;;;;;6.50;1.85;;;6.60;99.90;;;;;;5033815;28;20076;-66
2024/02/06 08:20:10;;;;;;;11.70;2.90;;;6.60;99.90;;;;;;5062156;28;20086;-66
2024/02/06 08:22:37;;;;;;;3.05;1.73;;;6.60;99.90;;;;;;5033207;28;20034;-65
2024/02/06 08:25:06;;;;;;;5.10;2.00;;;6.60;99.90;;;;;;5029606;28;20112;-66
2024/02/06 08:27:33;;;;;;;7.63;1.70;;;6.60;99.90;;;;;;5048952;28;20033;-66
2024/02/06 08:29:59;;;;;;;4.38;2.45;;;6.60;99.90;;;;;;5033901;28;20371;-66
2024/02/06 08:32:25;;;;;;;12.75;3.03;;;6.60;99.90;;;;;;5048389;28;20029;-66
2024/02/06 08:34:51;;;;;;;7.07;2.88;;;6.70;99.90;;;;;;5033396;28;20030;-66
2024/02/06 08:37:17;;;;;;;5.55;1.70;;;6.70;99.90;;;;;;5032828;28;20048;-65
2024/02/06 08:39:43;;;;;;;9.05;1.80;;;6.70;99.90;;;;;;5034063;28;20053;-66
2024/02/06 08:42:09;;;;;;;4.07;1.92;;;6.70;99.90;;;;;;5032518;28;20034;-66
2024/02/06 08:44:35;;;;;;;6.57;2.30;;;6.70;99.90;;;;;;5033598;28;20021;-66
2024/02/06 08:47:01;;;;;;;7.70;2.65;;;6.70;99.90;;;;;;5027189;28;20169;-66
2024/02/06 08:49:27;;;;;;;3.15;1.30;;;6.70;99.90;;;;;;5033518;28;20018;-66
2024/02/06 08:51:53;;;;;;;2.95;1.50;;;6.70;99.90;;;;;;5027781;28;20045;-66
2024/02/06 08:54:21;;;;;;;7.60;2.78;;;6.80;99.90;;;;;;5047629;28;20033;-67
2024/02/06 08:56:48;;;;;;;2.95;2.00;;;6.70;99.90;;;;;;5032380;28;20034;-66
2024/02/06 08:59:14;;;;;;;2.72;1.60;;;6.80;99.90;;;;;;5032406;28;20064;-66
2024/02/06 09:01:40;;;;;;;3.00;1.73;;;6.80;99.90;;;;;;5029071;28;20053;-66
2024/02/06 09:04:06;;;;;;;2.35;1.50;;;6.80;99.90;;;;;;5045644;28;20029;-66
2024/02/06 09:06:32;;;;;;;4.10;1.30;;;6.80;99.90;;;;;;5032895;28;20060;-66
2024/02/06 09:08:58;;;;;;;3.10;1.52;;;6.90;99.90;;;;;;5032971;28;20378;-66
2024/02/06 09:11:27;;;;;;;7.72;2.63;;;6.90;99.90;;;;;;5032865;28;20030;-66
2024/02/06 09:13:56;;;;;;;0.90;0.85;;;6.90;99.90;;;;;;5032855;28;20100;-66
2024/02/06 09:16:22;;;;;;;6.68;1.38;;;6.90;99.90;;;;;;5047383;28;20094;-66
2024/02/06 09:18:52;;;;;;;4.53;1.42;;;6.90;99.90;;;;;;5033401;28;20037;-66
2024/02/06 09:21:19;;;;;;;2.25;1.50;;;7.00;99.90;;;;;;5032097;28;20053;-66
2024/02/06 09:23:45;;;;;;;2.83;2.05;;;7.10;99.90;;;;;;5030302;28;20072;-66
2024/02/06 09:26:12;;;;;;;9.60;1.80;;;7.00;99.90;;;;;;5032484;28;20026;-67
2024/02/06 09:28:38;;;;;;;2.03;1.25;;;7.10;99.90;;;;;;5031278;28;20025;-66
2024/02/06 09:31:05;;;;;;;3.72;1.42;;;7.20;99.90;;;;;;5033343;28;20059;-66
2024/02/06 09:33:32;;;;;;;3.38;1.55;;;7.20;99.90;;;;;;5031420;28;20017;-66
2024/02/06 09:35:58;;;;;;;1.48;1.05;;;7.30;99.90;;;;;;5032770;28;20037;-66
2024/02/06 09:38:24;;;;;;;2.85;1.38;;;7.20;99.90;;;;;;5031828;28;20493;-66
2024/02/06 09:40:50;;;;;;;3.75;1.17;;;7.30;99.90;;;;;;5047707;28;20128;-66
2024/02/06 09:43:17;;;;;;;1.92;1.30;;;7.30;99.90;;;;;;5030999;28;20362;-66
2024/02/06 09:45:44;;;;;;;2.22;1.60;;;7.30;99.90;;;;;;5031398;28;20030;-66
2024/02/06 09:48:10;;;;;;;4.05;1.17;;;7.30;99.90;;;;;;5031751;28;20068;-66
2024/02/06 09:50:36;;;;;;;9.27;1.38;;;7.30;99.90;;;;;;5032871;28;20056;-66
2024/02/06 09:53:02;;;;;;;2.38;1.27;;;7.40;99.90;;;;;;5030995;28;20025;-66
2024/02/06 09:55:29;;;;;;;3.22;1.60;;;7.50;99.90;;;;;;5048006;28;20386;-66
2024/02/06 09:57:57;;;;;;;3.13;1.35;;;7.50;99.90;;;;;;5029033;28;20401;-66
2024/02/06 10:00:24;;;;;;;3.17;1.23;;;7.50;99.90;;;;;;5022656;28;20029;-65
2024/02/06 10:02:58;;;;;;;8.55;1.38;;;7.50;99.90;;;;;;5029506;28;20139;-66
2024/02/06 10:05:31;;;;;;;2.10;1.08;;;7.60;99.90;;;;;;5039623;28;20044;-65
2024/02/06 10:07:57;;;;;;;2.95;1.20;;;7.50;99.90;;;;;;5030524;28;20029;-65
2024/02/06 10:10:24;;;;;;;3.22;1.40;;;7.60;99.90;;;;;;5022366;28;20047;-65
2024/02/06 10:12:50;;;;;;;1.35;0.80;;;7.60;99.90;;;;;;5046106;28;20022;-65
2024/02/06 10:15:23;;;;;;;6.78;2.17;;;7.60;99.90;;;;;;5030374;28;20090;-65
2024/02/06 10:17:49;;;;;;;6.53;1.67;;;7.60;99.90;;;;;;5031698;28;20044;-65
2024/02/06 10:20:15;;;;;;;6.50;1.60;;;7.60;99.90;;;;;;5031589;28;20033;-67
2024/02/06 10:22:41;;;;;;;10.68;1.98;;;7.60;99.90;;;;;;5045686;28;20120;-66
2024/02/06 10:25:11;;;;;;;2.33;1.27;;;7.70;99.90;;;;;;5031056;28;20091;-66
2024/02/06 10:27:38;;;;;;;3.40;1.58;;;7.70;99.90;;;;;;5031035;28;20124;-66
2024/02/06 10:30:08;;;;;;;3.90;1.85;;;7.70;99.90;;;;;;5032142;28;20048;-66
2024/02/06 10:32:34;;;;;;;2.70;1.38;;;7.70;99.90;;;;;;5045368;28;20456;-66
2024/02/06 10:35:01;;;;;;;8.52;1.65;;;7.80;99.90;;;;;;5034306;28;20119;-66
2024/02/06 10:37:27;;;;;;;17.83;2.03;;;7.70;99.90;;;;;;5030514;28;20036;-66
2024/02/06 10:39:53;;;;;;;4.55;1.90;;;7.70;99.90;;;;;;5046363;28;20037;-65
2024/02/06 10:42:20;;;;;;;6.95;2.67;;;7.80;99.90;;;;;;5030328;28;20068;-66
2024/02/06 10:44:46;;;;;;;5.15;2.28;;;7.80;99.90;;;;;;5029619;28;20044;-66
2024/02/06 10:47:15;;;;;;;6.20;1.20;;;7.80;99.90;;;;;;5030471;28;20033;-66
2024/02/06 10:49:41;;;;;;;4.07;1.85;;;7.90;99.90;;;;;;5046793;28;20112;-66
2024/02/06 10:52:08;;;;;;;2.03;0.93;;;7.90;99.90;;;;;;5028662;28;20104;-65
2024/02/06 10:54:38;;;;;;;4.18;1.35;;;8.00;99.90;;;;;;5045837;28;20025;-65
2024/02/06 10:57:06;;;;;;;4.90;1.63;;;7.90;99.90;;;;;;5028581;28;20504;-65
2024/02/06 11:00:00;;;;;;;3.47;1.67;;;7.90;99.90;;;;;;5031216;28;20051;-66
2024/02/06 11:02:31;;;;;;;8.52;1.75;;;7.90;99.90;;;;;;5026281;28;20035;-65
2024/02/06 11:05:39;;;;;;;3.60;1.55;;;8.00;99.90;;;;;;5030828;28;20028;-65
2024/02/06 11:08:29;;;;;;;2.35;1.40;;;8.10;99.90;;;;;;5029538;28;20053;-66
2024/02/06 11:10:59;;;;;;;2.75;1.38;;;8.20;99.90;;;;;;5045748;28;20500;-66
2024/02/06 11:13:26;;;;;;;6.70;1.73;;;8.30;99.90;;;;;;5028239;28;20048;-66
2024/02/06 11:15:53;;;;;;;3.70;1.30;;;8.40;99.90;;;;;;5030476;28;20041;-65
2024/02/06 11:18:23;;;;;;;3.13;2.00;;;8.40;99.90;;;;;;5045829;28;20176;-65
2024/02/06 11:20:52;;;;;;;4.65;1.55;;;8.50;99.90;;;;;;5045733;28;20120;-66
2024/02/06 11:23:20;;;;;;;4.63;2.17;;;8.50;99.90;;;;;;5028303;28;20675;-66
2024/02/06 11:25:48;;;;;;;6.65;1.77;;;8.60;99.90;;;;;;5030824;28;20091;-66
2024/02/06 11:28:16;;;;;;;4.13;1.80;;;8.70;99.90;;;;;;5044770;28;20033;-66
2024/02/06 11:30:44;;;;;;;11.52;1.58;;;8.70;99.90;;;;;;5031152;28;20035;-66
2024/02/06 11:33:14;;;;;;;3.15;0.93;;;8.80;99.90;;;;;;5043946;28;20025;-66
2024/02/06 11:35:40;;;;;;;5.20;1.55;;;9.00;99.90;;;;;;5030588;28;20032;-67
2024/02/06 11:38:07;;;;;;;3.85;1.20;;;9.00;99.90;;;;;;5029382;28;20034;-66
2024/02/06 11:40:33;;;;;;;4.03;1.55;;;9.00;99.90;;;;;;5045475;28;20481;-66
2024/02/06 11:43:04;;;;;;;2.22;1.15;;;9.10;99.90;;;;;;5027949;28;20099;-67
2024/02/06 11:45:31;;;;;;;13.68;1.52;;;9.20;99.90;;;;;;5045913;28;20029;-66
2024/02/06 11:48:03;;;;;;;2.75;1.58;;;9.00;99.90;;;;;;5035916;28;20046;-66
2024/02/06 11:50:43;;;;;;;7.43;2.03;;;9.00;99.90;;;;;;5022990;28;20033;-66
2024/02/06 11:53:14;;;;;;;8.50;1.73;;;9.00;99.90;;;;;;5028892;28;20037;-66
2024/02/06 11:55:44;;;;;;;5.40;2.00;;;9.10;99.90;;;;;;5027929;28;20030;-66
2024/02/06 11:58:11;;;;;;;11.05;1.45;;;9.10;99.90;;;;;;5026296;28;20108;-66
2024/02/06 12:00:37;;;;;;;6.75;2.05;;;9.00;99.90;;;;;;5045654;28;20041;-67
2024/02/06 12:03:04;;;;;;;11.00;1.45;;;9.10;99.90;;;;;;5028522;28;20450;-67
2024/02/06 12:05:43;;;;;;;2.50;1.88;;;9.10;99.90;;;;;;5042096;28;20053;-67
2024/02/06 12:08:11;;;;;;;2.08;1.52;;;9.10;99.90;;;;;;5042755;28;20117;-67
2024/02/06 12:10:38;;;;;;;12.75;1.63;;;9.10;99.90;;;;;;5045682;28;20032;-67
2024/02/06 12:13:09;;;;;;;4.15;1.15;;;9.10;99.90;;;;;;5022946;28;20032;-67
2024/02/06 12:15:37;;;;;;;5.13;1.90;;;9.00;99.90;;;;;;5030436;28;20034;-67
2024/02/06 12:18:07;;;;;;;1.55;0.95;;;9.10;99.90;;;;;;5044469;28;20037;-67
2024/02/06 12:20:33;;;;;;;3.58;1.58;;;9.10;99.90;;;;;;5045500;28;20025;-67
2024/02/06 12:23:07;;;;;;;4.32;1.92;;;9.00;99.90;;;;;;5028363;28;20041;-67
2024/02/06 12:25:40;;;;;;;2.47;1.02;;;9.00;99.90;;;;;;5026782;28;20108;-67
2024/02/06 12:28:12;;;;;;;3.70;2.50;;;8.90;99.90;;;;;;5042538;28;20030;-67
2024/02/06 12:30:45;;;;;;;2.25;1.63;;;9.00;99.90;;;;;;5034828;28;20133;-67
2024/02/06 12:33:11;;;;;;;4.95;1.58;;;8.90;99.90;;;;;;5031700;28;20108;-68
2024/02/06 12:35:38;;;;;;;6.03;0.98;;;9.00;99.90;;;;;;5048950;28;20066;-67
2024/02/06 12:38:05;;;;;;;6.93;1.83;;;9.00;99.90;;;;;;5031396;28;20087;-66
2024/02/06 12:40:34;;;;;;;1.92;0.95;;;9.00;99.90;;;;;;5048514;28;20033;-66
2024/02/06 12:43:05;;;;;;;4.85;2.33;;;9.10;99.90;;;;;;5031930;28;20033;-66
2024/02/06 12:45:34;;;;;;;3.47;1.75;;;9.10;99.90;;;;;;5048662;28;20343;-66
2024/02/06 12:48:00;;;;;;;7.32;2.38;;;9.10;99.90;;;;;;5025375;28;20473;-66
2024/02/06 12:50:27;;;;;;;4.75;1.10;;;9.00;99.90;;;;;;5040147;28;20022;-66
2024/02/06 12:52:59;;;;;;;7.50;1.98;;;9.10;99.90;;;;;;5011400;28;20034;-66